createdAt,value
2018-02-22T00:01:01.864Z,14.82
2018-02-22T00:02:05.168Z,14.75
2018-02-22T00:03:07.696Z,16.10
2018-02-22T00:04:10.254Z,15.77
2018-02-22T00:05:12.790Z,16.02
2018-02-22T00:06:16.073Z,14.18
2018-02-22T00:07:18.657Z,15.68
2018-02-22T00:08:21.334Z,14.93
2018-02-22T00:09:24.330Z,15.25
2018-02-22T00:10:27.168Z,14.32
2018-02-22T00:11:29.803Z,16.17
2018-02-22T00:12:32.713Z,15.57
2018-02-22T00:13:35.260Z,15.25
2018-02-22T00:14:39.156Z,13.60
2018-02-22T00:15:42.733Z,13.62
2018-02-22T00:16:46.202Z,14.90
2018-02-22T00:17:50.328Z,14.27
2018-02-22T00:18:52.922Z,15.98
2018-02-22T00:19:56.035Z,15.02
2018-02-22T00:21:00.614Z,12.37
2018-02-22T00:22:04.063Z,13.80
2018-02-22T00:23:07.401Z,14.05
2018-02-22T00:24:11.258Z,13.50
2018-02-22T00:25:14.417Z,14.60
2018-02-22T00:26:17.777Z,13.88
2018-02-22T00:27:20.311Z,16.33
2018-02-22T00:28:23.574Z,14.15
2018-02-22T00:29:26.092Z,13.48
2018-02-22T00:30:28.604Z,14.90
2018-02-22T00:31:31.129Z,15.40
2018-02-22T00:32:34.412Z,12.48
2018-02-22T00:33:36.910Z,13.65
2018-02-22T00:34:39.417Z,13.43
2018-02-22T00:35:41.915Z,13.20
2018-02-22T00:36:45.182Z,14.90
2018-02-22T00:37:47.678Z,14.10
2018-02-22T00:38:50.171Z,14.60
2018-02-22T00:39:52.678Z,14.52
2018-02-22T00:40:55.219Z,13.82
2018-02-22T00:41:57.723Z,12.80
2018-02-22T00:43:00.230Z,14.23
2018-02-22T00:44:02.752Z,14.75
2018-02-22T00:45:05.259Z,13.40
2018-02-22T00:46:08.553Z,13.45
2018-02-22T00:47:11.848Z,14.35
2018-02-22T00:48:15.122Z,14.38
2018-02-22T00:49:18.391Z,14.82
2018-02-22T00:50:20.896Z,15.50
2018-02-22T00:51:24.215Z,14.30
2018-02-22T00:52:26.734Z,15.02
2018-02-22T00:53:29.987Z,14.13
2018-02-22T00:54:32.504Z,14.13
2018-02-22T00:55:35.789Z,14.50
2018-02-22T00:56:38.324Z,14.05
2018-02-22T00:57:40.834Z,14.95
2018-02-22T00:58:43.342Z,15.18
2018-02-22T00:59:45.849Z,13.65
2018-02-22T01:01:57.510Z,13.05
2018-02-22T01:03:00.019Z,15.68
2018-02-22T01:04:02.529Z,14.40
2018-02-22T01:05:05.045Z,14.87
2018-02-22T01:06:07.564Z,15.13
2018-02-22T01:07:10.106Z,13.15
2018-02-22T01:08:12.614Z,14.45
2018-02-22T01:09:15.119Z,13.20
2018-02-22T01:10:17.614Z,14.48
2018-02-22T01:11:20.896Z,14.52
2018-02-22T01:12:23.426Z,14.43
2018-02-22T01:13:25.942Z,13.62
2018-02-22T01:14:29.955Z,14.63
2018-02-22T01:15:32.460Z,13.95
2018-02-22T01:16:34.968Z,14.05
2018-02-22T01:17:37.498Z,13.73
2018-02-22T01:18:40.006Z,14.90
2018-02-22T01:19:42.525Z,14.75
2018-02-22T01:20:45.798Z,14.63
2018-02-22T01:21:49.062Z,13.90
2018-02-22T01:22:51.588Z,14.15
2018-02-22T01:23:54.113Z,13.88
2018-02-22T01:24:58.130Z,14.63
2018-02-22T01:26:00.640Z,14.55
2018-02-22T01:27:03.150Z,14.05
2018-02-22T01:28:05.651Z,13.07
2018-02-22T01:29:08.929Z,13.68
2018-02-22T01:30:11.438Z,14.35
2018-02-22T01:31:13.936Z,13.82
2018-02-22T01:32:16.434Z,14.82
2018-02-22T01:33:18.941Z,14.07
2018-02-22T01:34:21.464Z,13.82
2018-02-22T01:35:23.968Z,14.65
2018-02-22T01:36:27.239Z,15.07
2018-02-22T01:37:29.753Z,14.48
2018-02-22T01:38:32.290Z,14.48
2018-02-22T01:39:35.562Z,14.32
2018-02-22T01:40:38.092Z,13.45
2018-02-22T01:41:40.596Z,13.18
2018-02-22T01:42:43.126Z,13.82
2018-02-22T01:43:45.647Z,14.35
2018-02-22T01:44:48.176Z,14.48
2018-02-22T01:45:50.726Z,13.35
2018-02-22T01:46:53.244Z,15.07
2018-02-22T01:47:55.741Z,12.32
2018-02-22T01:48:59.040Z,14.25
2018-02-22T01:50:02.334Z,14.00
2018-02-22T01:51:04.919Z,14.40
2018-02-22T01:52:07.496Z,14.98
2018-02-22T01:53:10.083Z,14.80
2018-02-22T01:54:12.607Z,14.48
2018-02-22T01:55:15.918Z,13.88
2018-02-22T01:56:18.435Z,13.55
2018-02-22T01:57:20.969Z,14.35
2018-02-22T01:58:23.475Z,14.75
2018-02-22T01:59:26.002Z,12.75
2018-02-22T02:00:28.542Z,13.68
2018-02-22T02:01:31.148Z,14.15
2018-02-22T02:02:33.657Z,14.07
2018-02-22T02:03:36.151Z,14.27
2018-02-22T02:04:40.178Z,14.87
2018-02-22T02:05:43.456Z,15.32
2018-02-22T02:06:46.751Z,13.60
2018-02-22T02:07:50.061Z,14.95
2018-02-22T02:08:52.654Z,13.65
2018-02-22T02:09:55.199Z,12.40
2018-02-22T02:10:57.743Z,14.65
2018-02-22T02:12:00.305Z,13.50
2018-02-22T02:13:04.346Z,15.38
2018-02-22T02:14:06.888Z,13.75
2018-02-22T02:15:09.401Z,13.60
2018-02-22T02:16:11.965Z,12.55
2018-02-22T02:17:14.477Z,14.87
2018-02-22T02:18:16.978Z,12.85
2018-02-22T02:19:20.268Z,15.25
2018-02-22T02:20:23.544Z,14.23
2018-02-22T02:21:26.068Z,14.10
2018-02-22T02:22:28.630Z,14.27
2018-02-22T02:23:31.136Z,13.80
2018-02-22T02:24:33.638Z,13.35
2018-02-22T02:25:36.906Z,13.50
2018-02-22T02:26:39.446Z,14.57
2018-02-22T02:27:47.684Z,14.73
2018-02-22T02:28:50.181Z,14.05
2018-02-22T02:29:53.443Z,13.43
2018-02-22T02:30:55.953Z,14.68
2018-02-22T02:31:58.497Z,13.18
2018-02-22T02:33:01.774Z,13.57
2018-02-22T02:34:04.283Z,13.30
2018-02-22T02:35:06.777Z,13.52
2018-02-22T02:36:10.215Z,13.77
2018-02-22T02:37:13.514Z,13.10
2018-02-22T02:38:16.769Z,13.43
2018-02-22T02:39:19.293Z,11.82
2018-02-22T02:40:21.786Z,11.70
2018-02-22T02:41:24.281Z,13.80
2018-02-22T02:42:26.800Z,12.88
2018-02-22T02:43:29.381Z,13.85
2018-02-22T02:44:31.896Z,13.77
2018-02-22T02:45:34.407Z,13.93
2018-02-22T02:46:36.910Z,13.60
2018-02-22T02:47:39.414Z,14.65
2018-02-22T02:48:41.933Z,13.18
2018-02-22T02:49:44.434Z,12.43
2018-02-22T02:50:46.941Z,12.93
2018-02-22T02:51:50.208Z,12.57
2018-02-22T02:52:52.739Z,13.25
2018-02-22T02:53:55.238Z,12.90
2018-02-22T02:54:57.756Z,12.57
2018-02-22T02:56:01.035Z,14.10
2018-02-22T02:57:04.298Z,13.95
2018-02-22T02:58:06.800Z,13.20
2018-02-22T02:59:10.078Z,14.07
2018-02-22T03:00:13.399Z,13.38
2018-02-22T03:01:15.904Z,12.90
2018-02-22T03:02:18.409Z,12.40
2018-02-22T03:03:21.687Z,14.40
2018-02-22T03:04:24.947Z,12.10
2018-02-22T03:05:27.453Z,13.77
2018-02-22T03:06:30.724Z,12.68
2018-02-22T03:07:34.020Z,13.20
2018-02-22T03:08:36.562Z,14.45
2018-02-22T03:09:39.079Z,10.88
2018-02-22T03:10:42.333Z,12.55
2018-02-22T03:11:44.820Z,12.93
2018-02-22T03:12:47.329Z,12.80
2018-02-22T03:13:49.859Z,13.62
2018-02-22T03:14:52.359Z,13.18
2018-02-22T03:15:54.862Z,13.40
2018-02-22T03:16:57.401Z,13.55
2018-02-22T03:17:59.909Z,14.73
2018-02-22T03:19:02.428Z,12.60
2018-02-22T03:20:05.705Z,14.13
2018-02-22T03:21:09.003Z,14.18
2018-02-22T03:22:12.277Z,12.95
2018-02-22T03:23:15.555Z,14.60
2018-02-22T03:24:18.077Z,14.02
2018-02-22T03:25:20.573Z,13.40
2018-02-22T03:26:23.072Z,13.15
2018-02-22T03:27:25.571Z,12.90
2018-02-22T03:28:28.080Z,12.90
2018-02-22T03:29:30.593Z,13.55
2018-02-22T03:30:33.868Z,13.50
2018-02-22T03:31:36.362Z,13.32
2018-02-22T03:32:38.883Z,13.20
2018-02-22T03:33:41.386Z,13.62
2018-02-22T03:34:44.678Z,13.20
2018-02-22T03:35:47.971Z,12.85
2018-02-22T03:36:51.244Z,14.52
2018-02-22T03:37:53.782Z,13.10
2018-02-22T03:38:56.306Z,13.68
2018-02-22T03:39:59.589Z,12.80
2018-02-22T03:41:02.895Z,12.90
2018-02-22T03:42:05.402Z,13.70
2018-02-22T03:43:07.921Z,13.32
2018-02-22T03:44:11.215Z,13.77
2018-02-22T03:45:14.490Z,12.93
2018-02-22T03:46:16.995Z,12.60
2018-02-22T03:47:19.512Z,13.43
2018-02-22T03:48:22.035Z,13.35
2018-02-22T03:49:24.547Z,13.80
2018-02-22T03:50:27.070Z,12.57
2018-02-22T03:51:29.594Z,14.50
2018-02-22T03:52:32.124Z,13.85
2018-02-22T03:53:34.622Z,12.18
2018-02-22T03:54:37.151Z,13.02
2018-02-22T03:55:39.655Z,13.85
2018-02-22T03:56:42.165Z,14.15
2018-02-22T03:57:45.427Z,12.25
2018-02-22T03:58:47.931Z,13.77
2018-02-22T03:59:51.211Z,12.80
2018-02-22T04:00:53.707Z,12.37
2018-02-22T04:01:56.217Z,12.60
2018-02-22T04:02:58.729Z,12.23
2018-02-22T04:04:02.032Z,12.90
2018-02-22T04:05:04.561Z,13.98
2018-02-22T04:06:07.052Z,13.77
2018-02-22T04:07:09.580Z,13.02
2018-02-22T04:08:12.071Z,12.48
2018-02-22T04:09:14.578Z,13.55
2018-02-22T04:10:17.847Z,13.80
2018-02-22T04:11:21.893Z,13.60
2018-02-22T04:12:24.406Z,14.13
2018-02-22T04:13:26.914Z,13.50
2018-02-22T04:14:30.185Z,12.50
2018-02-22T04:15:32.702Z,15.77
2018-02-22T04:16:35.976Z,14.40
2018-02-22T04:17:38.486Z,12.55
2018-02-22T04:18:41.754Z,13.85
2018-02-22T04:19:45.034Z,12.95
2018-02-22T04:20:47.547Z,13.95
2018-02-22T04:21:50.822Z,12.45
2018-02-22T04:22:54.098Z,13.90
2018-02-22T04:23:57.382Z,12.95
2018-02-22T04:24:59.884Z,12.68
2018-02-22T04:26:02.419Z,13.80
2018-02-22T04:27:04.920Z,13.80
2018-02-22T04:28:08.177Z,12.82
2018-02-22T04:29:10.692Z,13.88
2018-02-22T04:30:13.203Z,13.82
2018-02-22T04:31:15.721Z,13.73
2018-02-22T04:32:18.983Z,15.30
2018-02-22T04:33:21.486Z,13.10
2018-02-22T04:34:24.747Z,12.88
2018-02-22T04:35:27.245Z,12.90
2018-02-22T04:36:29.768Z,13.05
2018-02-22T04:37:32.282Z,14.52
2018-02-22T04:38:34.788Z,14.43
2018-02-22T04:39:37.287Z,13.77
2018-02-22T04:40:39.800Z,12.75
2018-02-22T04:41:42.310Z,13.75
2018-02-22T04:42:44.803Z,15.20
2018-02-22T04:43:47.314Z,14.73
2018-02-22T04:44:50.591Z,14.43
2018-02-22T04:45:53.090Z,12.90
2018-02-22T04:46:55.602Z,13.73
2018-02-22T04:47:58.099Z,13.80
2018-02-22T04:49:00.594Z,12.88
2018-02-22T04:50:03.875Z,14.87
2018-02-22T04:51:07.136Z,13.75
2018-02-22T04:52:10.451Z,14.13
2018-02-22T04:53:13.722Z,14.68
2018-02-22T04:54:16.231Z,13.82
2018-02-22T04:55:18.725Z,13.62
2018-02-22T04:56:22.121Z,13.93
2018-02-22T04:57:24.650Z,13.57
2018-02-22T04:58:27.171Z,12.25
2018-02-22T04:59:29.683Z,13.10
2018-02-22T05:00:32.958Z,13.20
2018-02-22T05:01:35.474Z,12.65
2018-02-22T05:02:38.001Z,15.52
2018-02-22T05:03:40.533Z,14.45
2018-02-22T05:04:43.032Z,14.13
2018-02-22T05:05:45.535Z,13.13
2018-02-22T05:06:48.038Z,14.35
2018-02-22T05:07:51.446Z,15.43
2018-02-22T05:08:53.946Z,16.12
2018-02-22T05:09:56.450Z,15.45
2018-02-22T05:10:58.959Z,13.50
2018-02-22T05:12:01.478Z,12.50
2018-02-22T05:13:04.000Z,13.80
2018-02-22T05:14:06.542Z,15.65
2018-02-22T05:15:09.019Z,11.82
2018-02-22T05:16:12.293Z,14.30
2018-02-22T05:17:14.805Z,12.80
2018-02-22T05:18:17.332Z,13.05
2018-02-22T05:19:19.841Z,13.95
2018-02-22T05:20:22.333Z,13.25
2018-02-22T05:21:24.840Z,14.85
2018-02-22T05:22:27.339Z,14.80
2018-02-22T05:23:30.626Z,14.20
2018-02-22T05:24:33.904Z,15.35
2018-02-22T05:25:36.414Z,14.10
2018-02-22T05:26:38.937Z,14.75
2018-02-22T05:27:41.432Z,15.18
2018-02-22T05:28:44.715Z,11.98
2018-02-22T05:29:47.990Z,13.32
2018-02-22T05:30:50.517Z,13.05
2018-02-22T05:31:53.020Z,14.02
2018-02-22T05:32:55.526Z,13.52
2018-02-22T05:33:58.054Z,14.80
2018-02-22T05:35:02.051Z,14.30
2018-02-22T05:36:04.574Z,14.87
2018-02-22T05:37:07.075Z,14.35
2018-02-22T05:38:09.598Z,13.85
2018-02-22T05:39:12.900Z,13.98
2018-02-22T05:40:15.422Z,13.05
2018-02-22T05:41:17.955Z,13.98
2018-02-22T05:42:20.461Z,14.00
2018-02-22T05:43:22.963Z,14.15
2018-02-22T05:44:26.263Z,13.25
2018-02-22T05:45:29.538Z,14.57
2018-02-22T05:46:32.839Z,12.30
2018-02-22T05:47:36.246Z,14.85
2018-02-22T05:48:38.780Z,13.45
2018-02-22T05:49:41.328Z,13.68
2018-02-22T05:50:43.842Z,14.63
2018-02-22T05:51:46.360Z,12.98
2018-02-22T05:52:48.845Z,14.05
2018-02-22T05:53:51.358Z,15.27
2018-02-22T05:54:53.868Z,14.95
2018-02-22T05:55:56.372Z,14.95
2018-02-22T05:57:00.142Z,14.60
2018-02-22T05:58:02.639Z,14.05
2018-02-22T05:59:05.187Z,14.13
2018-02-22T06:00:07.695Z,13.75
2018-02-22T06:01:11.031Z,14.38
2018-02-22T06:02:13.605Z,14.02
2018-02-22T06:03:16.104Z,14.25
2018-02-22T06:04:18.608Z,13.85
2018-02-22T06:05:21.910Z,14.10
2018-02-22T06:06:24.422Z,14.48
2018-02-22T06:07:26.980Z,15.60
2018-02-22T06:08:29.474Z,14.68
2018-02-22T06:09:31.981Z,14.98
2018-02-22T06:10:34.543Z,14.52
2018-02-22T06:11:37.807Z,14.48
2018-02-22T06:12:40.348Z,14.82
2018-02-22T06:13:42.840Z,16.17
2018-02-22T06:14:45.360Z,14.75
2018-02-22T06:15:47.863Z,15.10
2018-02-22T06:16:50.399Z,13.82
2018-02-22T06:17:52.917Z,15.32
2018-02-22T06:18:55.445Z,15.40
2018-02-22T06:19:58.491Z,14.40
2018-02-22T06:21:01.011Z,13.80
2018-02-22T06:22:03.524Z,13.00
2018-02-22T06:23:06.032Z,14.63
2018-02-22T06:24:08.523Z,14.30
2018-02-22T06:25:11.058Z,14.00
2018-02-22T06:26:14.356Z,15.50
2018-02-22T06:27:17.620Z,13.62
2018-02-22T06:28:20.900Z,14.55
2018-02-22T06:29:23.427Z,15.23
2018-02-22T06:30:25.943Z,14.52
2018-02-22T06:31:28.439Z,14.10
2018-02-22T06:32:31.765Z,14.52
2018-02-22T06:33:34.281Z,14.93
2018-02-22T06:34:36.797Z,14.27
2018-02-22T06:35:39.323Z,13.68
2018-02-22T06:36:41.848Z,13.88
2018-02-22T06:37:44.359Z,14.43
2018-02-22T06:38:46.872Z,12.60
2018-02-22T06:39:49.373Z,15.45
2018-02-22T06:40:51.869Z,13.80
2018-02-22T06:41:56.823Z,13.70
2018-02-22T06:42:59.357Z,14.18
2018-02-22T06:44:01.915Z,13.43
2018-02-22T06:45:04.419Z,15.93
2018-02-22T06:46:07.886Z,13.18
2018-02-22T06:47:10.599Z,13.40
2018-02-22T06:48:13.900Z,13.13
2018-02-22T06:49:16.410Z,30.95
2018-02-22T06:50:18.937Z,16.52
2018-02-22T06:51:22.079Z,13.18
2018-02-22T06:52:25.387Z,14.50
2018-02-22T06:53:28.680Z,15.00
2018-02-22T06:54:31.976Z,13.23
2018-02-22T06:55:35.258Z,14.85
2018-02-22T06:56:38.534Z,14.40
2018-02-22T06:57:41.046Z,14.35
2018-02-22T06:58:43.552Z,14.23
2018-02-22T06:59:46.071Z,14.85
2018-02-22T07:00:49.335Z,16.20
2018-02-22T07:01:51.866Z,14.38
2018-02-22T07:02:54.388Z,13.60
2018-02-22T07:03:57.690Z,13.95
2018-02-22T07:05:00.250Z,13.82
2018-02-22T07:06:03.532Z,13.68
2018-02-22T07:07:06.803Z,14.85
2018-02-22T07:08:09.464Z,13.75
2018-02-22T07:09:12.722Z,14.00
2018-02-22T07:10:15.269Z,12.85
2018-02-22T07:11:18.548Z,14.52
2018-02-22T07:12:21.820Z,14.40
2018-02-22T07:13:24.316Z,15.05
2018-02-22T07:14:27.587Z,14.35
2018-02-22T07:15:30.886Z,14.77
2018-02-22T07:16:34.168Z,14.05
2018-02-22T07:17:37.465Z,14.48
2018-02-22T07:18:40.739Z,13.95
2018-02-22T07:19:43.246Z,14.32
2018-02-22T07:20:45.759Z,15.23
2018-02-22T07:21:48.280Z,15.32
2018-02-22T07:22:50.778Z,13.80
2018-02-22T07:23:53.290Z,12.27
2018-02-22T07:24:56.557Z,15.07
2018-02-22T07:25:59.056Z,15.52
2018-02-22T07:27:02.348Z,13.52
2018-02-22T07:28:06.083Z,12.77
2018-02-22T07:29:08.592Z,13.73
2018-02-22T07:30:11.229Z,14.77
2018-02-22T07:31:13.763Z,14.60
2018-02-22T07:32:17.976Z,15.70
2018-02-22T07:33:21.252Z,13.07
2018-02-22T07:34:23.745Z,13.77
2018-02-22T07:35:27.007Z,12.50
2018-02-22T07:36:29.551Z,14.73
2018-02-22T07:37:32.078Z,13.50
2018-02-22T07:38:34.578Z,14.50
2018-02-22T07:39:37.102Z,12.73
2018-02-22T07:40:40.362Z,13.70
2018-02-22T07:41:44.302Z,14.15
2018-02-22T07:42:48.435Z,14.50
2018-02-22T07:43:50.990Z,12.57
2018-02-22T07:44:53.495Z,13.82
2018-02-22T07:45:56.006Z,13.55
2018-02-22T07:46:59.286Z,11.95
2018-02-22T07:48:01.795Z,12.77
2018-02-22T07:49:04.302Z,12.18
2018-02-22T07:50:06.811Z,12.77
2018-02-22T07:51:10.922Z,12.65
2018-02-22T07:52:14.207Z,13.02
2018-02-22T07:53:17.501Z,12.55
2018-02-22T07:54:20.796Z,13.40
2018-02-22T07:55:24.090Z,12.93
2018-02-22T07:56:27.348Z,12.45
2018-02-22T07:57:29.856Z,12.15
2018-02-22T07:58:32.367Z,13.10
2018-02-22T07:59:34.867Z,13.27
2018-02-22T08:00:37.363Z,13.68
2018-02-22T08:01:39.878Z,11.60
2018-02-22T08:02:42.402Z,13.20
2018-02-22T08:03:44.927Z,13.88
2018-02-22T08:04:47.446Z,14.13
2018-02-22T08:05:49.962Z,13.05
2018-02-22T08:06:52.480Z,13.85
2018-02-22T08:07:54.971Z,13.45
2018-02-22T08:08:58.420Z,14.48
2018-02-22T08:10:01.715Z,14.02
2018-02-22T08:11:05.001Z,13.98
2018-02-22T08:12:08.266Z,13.35
2018-02-22T08:13:10.785Z,14.63
2018-02-22T08:14:14.079Z,14.20
2018-02-22T08:15:16.589Z,13.52
2018-02-22T08:16:19.130Z,14.85
2018-02-22T08:17:21.654Z,13.52
2018-02-22T08:18:24.180Z,13.85
2018-02-22T08:19:26.698Z,14.75
2018-02-22T08:20:29.966Z,14.80
2018-02-22T08:21:32.477Z,14.25
2018-02-22T08:22:34.972Z,13.25
2018-02-22T08:23:37.475Z,13.25
2018-02-22T08:24:39.977Z,13.93
2018-02-22T08:25:43.242Z,13.98
2018-02-22T08:26:45.770Z,14.55
2018-02-22T08:27:48.271Z,13.00
2018-02-22T08:28:50.771Z,14.30
2018-02-22T08:29:54.031Z,14.50
2018-02-22T08:30:56.552Z,12.98
2018-02-22T08:31:59.075Z,14.20
2018-02-22T08:33:01.581Z,13.65
2018-02-22T08:34:04.841Z,13.30
2018-02-22T08:36:07.360Z,14.80
2018-02-22T08:37:09.905Z,13.43
2018-02-22T08:38:13.293Z,13.30
2018-02-22T08:39:15.813Z,12.73
2018-02-22T08:40:19.297Z,14.00
2018-02-22T08:41:21.812Z,12.90
2018-02-22T08:42:24.322Z,15.90
2018-02-22T08:43:26.843Z,13.98
2018-02-22T08:44:29.362Z,13.52
2018-02-22T08:45:31.912Z,14.18
2018-02-22T08:46:34.414Z,14.82
2018-02-22T08:47:36.928Z,13.75
2018-02-22T08:48:39.430Z,13.05
2018-02-22T08:49:42.688Z,12.57
2018-02-22T08:50:45.562Z,13.75
2018-02-22T08:51:48.068Z,14.50
2018-02-22T08:52:51.325Z,13.68
2018-02-22T08:53:53.848Z,13.75
2018-02-22T08:54:56.371Z,14.15
2018-02-22T08:55:58.897Z,13.27
2018-02-22T08:57:01.413Z,13.30
2018-02-22T08:58:03.916Z,11.73
2018-02-22T08:59:07.193Z,12.02
2018-02-22T09:00:10.818Z,13.40
2018-02-22T09:01:13.431Z,12.02
2018-02-22T09:02:15.946Z,12.30
2018-02-22T09:03:19.239Z,13.95
2018-02-22T09:04:22.498Z,13.77
2018-02-22T09:05:24.999Z,12.68
2018-02-22T09:06:27.507Z,12.30
2018-02-22T09:07:30.004Z,13.13
2018-02-22T09:08:32.498Z,13.15
2018-02-22T09:09:35.781Z,11.75
2018-02-22T09:10:39.039Z,12.70
2018-02-22T09:11:41.585Z,12.82
2018-02-22T09:12:44.094Z,11.73
2018-02-22T09:13:46.603Z,12.02
2018-02-22T09:14:49.143Z,12.18
2018-02-22T09:15:51.658Z,11.70
2018-02-22T09:16:54.202Z,11.73
2018-02-22T09:17:57.472Z,12.20
2018-02-22T09:19:00.001Z,12.15
2018-02-22T09:20:02.512Z,13.00
2018-02-22T09:21:05.025Z,11.10
2018-02-22T09:22:07.534Z,12.50
2018-02-22T09:23:10.318Z,11.60
2018-02-22T09:24:12.858Z,11.32
2018-02-22T09:25:15.363Z,11.75
2018-02-22T09:26:17.865Z,11.15
2018-02-22T09:27:21.148Z,10.77
2018-02-22T09:28:24.426Z,11.60
2018-02-22T09:29:26.917Z,11.07
2018-02-22T09:30:30.193Z,10.05
2018-02-22T09:31:32.727Z,8.90
2018-02-22T09:32:35.220Z,9.23
2018-02-22T09:33:37.738Z,10.10
2018-02-22T09:34:40.242Z,9.57
2018-02-22T09:35:42.751Z,9.93
2018-02-22T09:36:46.021Z,10.77
2018-02-22T09:37:48.537Z,10.45
2018-02-22T09:38:51.047Z,9.40
2018-02-22T09:39:53.562Z,11.30
2018-02-22T09:40:56.101Z,10.00
2018-02-22T09:41:59.399Z,9.52
2018-02-22T09:43:02.676Z,9.18
2018-02-22T09:44:06.063Z,10.27
2018-02-22T09:45:08.595Z,10.70
2018-02-22T09:46:11.281Z,8.95
2018-02-22T09:47:13.803Z,10.43
2018-02-22T09:48:17.076Z,9.95
2018-02-22T09:49:19.583Z,8.85
2018-02-22T09:50:22.074Z,9.48
2018-02-22T09:51:24.592Z,8.65
2018-02-22T09:52:27.074Z,9.50
2018-02-22T09:53:30.337Z,9.90
2018-02-22T09:54:32.860Z,9.25
2018-02-22T09:55:35.368Z,10.68
2018-02-22T09:56:37.883Z,8.45
2018-02-22T09:57:40.398Z,8.70
2018-02-22T09:58:42.890Z,9.20
2018-02-22T09:59:45.397Z,9.95
2018-02-22T10:00:47.894Z,8.43
2018-02-22T10:01:50.387Z,7.82
2018-02-22T10:02:52.875Z,9.23
2018-02-22T10:03:55.358Z,8.02
2018-02-22T10:04:58.637Z,7.45
2018-02-22T10:06:01.142Z,8.30
2018-02-22T10:07:03.664Z,8.38
2018-02-22T10:08:06.240Z,6.87
2018-02-22T10:09:08.725Z,7.28
2018-02-22T10:10:12.282Z,7.87
2018-02-22T10:11:14.805Z,7.62
2018-02-22T10:12:18.049Z,6.43
2018-02-22T10:13:20.570Z,7.65
2018-02-22T10:14:23.078Z,5.93
2018-02-22T10:15:25.612Z,7.30
2018-02-22T10:16:28.254Z,6.87
2018-02-22T10:17:30.779Z,6.80
2018-02-22T10:18:33.264Z,7.35
2018-02-22T10:19:35.768Z,7.47
2018-02-22T10:20:39.051Z,7.05
2018-02-22T10:21:41.583Z,7.28
2018-02-22T10:22:44.085Z,6.50
2018-02-22T10:23:46.614Z,6.10
2018-02-22T10:24:49.149Z,7.47
2018-02-22T10:25:52.424Z,6.60
2018-02-22T10:26:54.952Z,6.25
2018-02-22T10:27:57.479Z,6.55
2018-02-22T10:29:00.740Z,7.35
2018-02-22T10:30:03.384Z,6.72
2018-02-22T10:31:05.870Z,5.82
2018-02-22T10:32:08.402Z,4.97
2018-02-22T10:33:11.037Z,6.75
2018-02-22T10:34:14.514Z,5.45
2018-02-22T10:35:17.856Z,6.78
2018-02-22T10:36:20.435Z,7.22
2018-02-22T10:37:22.971Z,5.20
2018-02-22T10:38:25.498Z,5.97
2018-02-22T10:39:28.051Z,5.85
2018-02-22T10:40:30.715Z,6.93
2018-02-22T10:41:33.414Z,6.90
2018-02-22T10:42:36.002Z,4.90
2018-02-22T10:43:38.528Z,6.55
2018-02-22T10:44:41.036Z,4.93
2018-02-22T10:45:43.557Z,5.95
2018-02-22T10:46:46.853Z,5.07
2018-02-22T10:47:49.537Z,5.70
2018-02-22T10:48:52.040Z,5.12
2018-02-22T10:49:54.547Z,5.10
2018-02-22T10:50:57.801Z,5.25
2018-02-22T10:52:00.301Z,5.80
2018-02-22T10:53:02.884Z,5.90
2018-02-22T10:54:06.186Z,5.32
2018-02-22T10:55:09.449Z,5.30
2018-02-22T10:56:12.147Z,6.43
2018-02-22T10:57:15.554Z,5.40
2018-02-22T10:58:18.074Z,5.55
2018-02-22T10:59:20.746Z,5.78
2018-02-22T11:00:29.263Z,4.93
2018-02-22T11:01:37.392Z,4.78
2018-02-22T11:02:59.632Z,5.55
2018-02-22T11:04:02.914Z,6.07
2018-02-22T11:05:06.191Z,5.47
2018-02-22T11:06:08.700Z,4.78
2018-02-22T11:07:11.523Z,5.10
2018-02-22T11:08:14.081Z,5.35
2018-02-22T11:09:16.571Z,4.85
2018-02-22T11:10:19.079Z,6.43
2018-02-22T11:11:21.614Z,5.85
2018-02-22T11:12:24.139Z,6.00
2018-02-22T11:13:26.643Z,5.15
2018-02-22T11:14:29.171Z,5.20
2018-02-22T11:15:31.668Z,6.00
2018-02-22T11:16:34.205Z,6.62
2018-02-22T11:17:36.722Z,6.78
2018-02-22T11:18:40.004Z,5.53
2018-02-22T11:19:42.542Z,6.60
2018-02-22T11:20:45.055Z,5.37
2018-02-22T11:21:47.604Z,6.22
2018-02-22T11:22:50.135Z,4.60
2018-02-22T11:23:52.650Z,5.70
2018-02-22T11:24:55.159Z,6.70
2018-02-22T11:25:58.422Z,5.25
2018-02-22T11:27:00.983Z,5.95
2018-02-22T11:28:03.547Z,5.12
2018-02-22T11:29:06.081Z,6.28
2018-02-22T11:30:08.769Z,5.53
2018-02-22T11:31:11.423Z,5.85
2018-02-22T11:32:14.061Z,6.28
2018-02-22T11:33:16.631Z,4.62
2018-02-22T11:34:19.115Z,6.30
2018-02-22T11:35:21.674Z,6.07
2018-02-22T11:36:24.191Z,6.20
2018-02-22T11:37:26.707Z,6.75
2018-02-22T11:38:29.239Z,5.80
2018-02-22T11:39:31.761Z,6.60
2018-02-22T11:40:34.353Z,7.25
2018-02-22T11:41:37.711Z,7.25
2018-02-22T11:42:40.287Z,6.05
2018-02-22T11:43:42.796Z,7.30
2018-02-22T11:44:46.073Z,5.40
2018-02-22T11:45:48.614Z,6.90
2018-02-22T11:46:51.135Z,6.60
2018-02-22T11:47:53.711Z,6.35
2018-02-22T11:48:56.269Z,7.35
2018-02-22T11:49:58.825Z,6.95
2018-02-22T11:51:02.165Z,7.47
2018-02-22T11:52:04.722Z,7.25
2018-02-22T11:53:07.243Z,5.70
2018-02-22T11:54:10.013Z,6.75
2018-02-22T11:55:12.791Z,5.60
2018-02-22T11:56:15.341Z,6.97
2018-02-22T11:57:17.851Z,7.25
2018-02-22T11:58:20.374Z,6.90
2018-02-22T11:59:22.915Z,7.07
2018-02-22T12:00:26.242Z,8.70
2018-02-22T12:01:28.791Z,7.43
2018-02-22T12:02:32.095Z,5.82
2018-02-22T12:03:35.367Z,7.47
2018-02-22T12:04:37.991Z,6.15
2018-02-22T12:05:41.379Z,6.15
2018-02-22T12:06:43.928Z,7.25
2018-02-22T12:07:46.490Z,7.07
2018-02-22T12:08:50.129Z,8.23
2018-02-22T12:09:52.660Z,5.97
2018-02-22T12:10:55.993Z,7.75
2018-02-22T12:11:58.583Z,7.15
2018-02-22T12:13:01.211Z,8.38
2018-02-22T12:14:03.838Z,9.20
2018-02-22T12:15:06.494Z,8.30
2018-02-22T12:16:09.101Z,7.10
2018-02-22T12:17:11.894Z,7.22
2018-02-22T12:18:14.492Z,6.43
2018-02-22T12:19:17.827Z,7.68
2018-02-22T12:20:20.443Z,7.60
2018-02-22T12:21:23.884Z,8.20
2018-02-22T12:22:26.531Z,7.97
2018-02-22T12:23:29.822Z,8.32
2018-02-22T12:24:33.204Z,8.52
2018-02-22T12:25:36.626Z,7.18
2018-02-22T12:26:39.179Z,7.25
2018-02-22T12:27:41.746Z,7.20
2018-02-22T12:28:44.330Z,7.90
2018-02-22T12:29:46.877Z,7.93
2018-02-22T12:30:50.227Z,8.00
2018-02-22T12:31:52.856Z,7.15
2018-02-22T12:32:55.387Z,7.10
2018-02-22T12:33:57.894Z,6.55
2018-02-22T12:35:00.448Z,8.70
2018-02-22T12:36:02.952Z,7.05
2018-02-22T12:37:05.608Z,7.00
2018-02-22T12:38:08.926Z,7.03
2018-02-22T12:39:11.703Z,7.47
2018-02-22T12:40:14.472Z,6.90
2018-02-22T12:41:17.148Z,7.82
2018-02-22T12:42:19.775Z,7.93
2018-02-22T12:43:22.392Z,8.32
2018-02-22T12:44:25.035Z,7.57
2018-02-22T12:45:28.379Z,8.40
2018-02-22T12:46:31.211Z,7.65
2018-02-22T12:47:34.505Z,8.48
2018-02-22T12:48:37.808Z,8.18
2018-02-22T12:49:40.367Z,8.75
2018-02-22T12:50:43.770Z,8.30
2018-02-22T12:51:46.414Z,8.60
2018-02-22T12:52:48.943Z,8.48
2018-02-22T12:53:51.585Z,7.05
2018-02-22T12:54:54.147Z,8.23
2018-02-22T12:55:57.325Z,7.18
2018-02-22T12:56:59.990Z,9.38
2018-02-22T12:58:03.327Z,7.78
2018-02-22T12:59:05.947Z,8.25
2018-02-22T13:00:08.495Z,8.40
2018-02-22T13:01:11.167Z,9.05
2018-02-22T13:02:13.898Z,8.20
2018-02-22T13:03:16.449Z,8.05
2018-02-22T13:04:19.852Z,9.63
2018-02-22T13:05:22.386Z,8.20
2018-02-22T13:06:24.907Z,9.32
2018-02-22T13:07:27.411Z,8.90
2018-02-22T13:08:29.962Z,9.30
2018-02-22T13:09:32.728Z,8.45
2018-02-22T13:10:35.361Z,9.05
2018-02-22T13:11:37.871Z,6.62
2018-02-22T13:12:40.357Z,9.13
2018-02-22T13:13:43.621Z,10.00
2018-02-22T13:14:46.410Z,9.63
2018-02-22T13:15:49.088Z,8.80
2018-02-22T13:16:51.617Z,9.68
2018-02-22T13:17:54.976Z,8.00
2018-02-22T13:18:57.492Z,9.00
2018-02-22T13:20:00.805Z,10.60
2018-02-22T13:21:03.315Z,9.50
2018-02-22T13:22:05.865Z,9.05
2018-02-22T13:23:08.367Z,10.00
2018-02-22T13:24:11.899Z,10.82
2018-02-22T13:25:14.494Z,10.60
2018-02-22T13:26:17.078Z,11.68
2018-02-22T13:27:19.717Z,9.27
2018-02-22T13:28:22.218Z,11.18
2018-02-22T13:29:24.864Z,10.43
2018-02-22T13:30:27.387Z,10.65
2018-02-22T13:31:29.908Z,10.77
2018-02-22T13:32:44.442Z,11.38
2018-02-22T13:33:58.799Z,9.90
2018-02-22T13:35:01.321Z,10.80
2018-02-22T13:36:03.874Z,11.73
2018-02-22T13:37:18.290Z,11.43
2018-02-22T13:38:32.654Z,10.43
2018-02-22T13:39:35.164Z,10.57